Observations for Trim Market St
| Time | AQI | Temp °C | Hum % | Pres Pa | CO μg/m³ | H₂S μg/m³ | NO μg/m³ | NO₂ μg/m³ | O₃ μg/m³ | SO₂ μg/m³ | PM1 μg/m³ | PM2.5 μg/m³ | PM10 μg/m³ |
|---|---|---|---|---|---|---|---|---|---|---|---|---|---|
| Saturday 15 August 2026 | |||||||||||||
| 02:30 | 2 | 17.8 | 70 | 55,022 | 0.06 | 0 | 1.43 | 5.88 | 55.72 | 0 | 0 | 1.09 | 2.53 |
| 02:24 | 2 | 17.8 | 70 | 55,022 | 0.06 | 0 | 1.41 | 5.58 | 53.75 | 0 | 0 | 1.09 | 2.54 |
| 02:23 | 2 | 17.9 | 70 | 55,014 | 0.06 | 0 | 1.39 | 6.11 | 52.84 | 0 | 0 | 1.09 | 2.54 |
| 02:22 | 2 | 17.8 | 70 | 55,000 | 0.06 | 0 | 1.42 | 4.72 | 55.06 | 0 | 0 | 1.09 | 2.54 |
| 02:20 | 2 | 17.9 | 70 | 54,973 | 0.06 | 0 | 1.38 | 4.96 | 54.96 | 0 | 0 | 1.57 | 3.16 |
| 02:19 | 2 | 17.9 | 70 | 54,936 | 0.06 | 0 | 1.39 | 5.44 | 54.66 | 0 | 0 | 1.09 | 3.79 |
| 02:18 | 2 | 17.9 | 71 | 54,920 | 0.05 | 0 | 1.47 | 6.94 | 53.08 | 0 | 0 | 1.57 | 3.17 |
| 02:17 | 2 | 17.9 | 71 | 54,920 | 0.07 | 0 | 1.41 | 5.6 | 54 | 0 | 0 | 1.09 | 2.54 |
| 02:16 | 2 | 17.9 | 71 | 54,913 | 0.06 | 0 | 1.45 | 6.32 | 55.2 | 0 | 0 | 2.06 | 4.41 |
| 02:14 | 2 | 17.9 | 71 | 54,900 | 0.1 | 0 | 1.48 | 6.1 | 51.97 | 0 | 0 | 3.03 | 5.04 |
| 02:12 | 2 | 17.9 | 71 | 54,875 | 0.11 | 0 | 1.4 | 8.93 | 48.24 | 0 | 0 | 1.09 | 2.54 |
| 02:09 | 2 | 17.9 | 71 | 54,789 | 0.15 | 0 | 1.4 | 5.19 | 53.38 | 0 | 0 | 1.57 | 3.17 |
| 02:07 | 2 | 17.9 | 71 | 54,715 | 0.1 | 0 | 1.48 | 6 | 56.4 | 0 | 0.71 | 1.57 | 3.17 |
| 02:05 | 2 | 17.9 | 71 | 54,654 | 0.09 | 0 | 1.71 | 8.11 | 55.92 | 0 | 0 | 1.08 | 2.55 |
| 02:01 | 2 | 17.9 | 71 | 54,521 | 0.11 | 0 | 1.62 | 10.08 | 44.85 | 0 | 0 | 1.08 | 2.55 |
| 01:54 | 2 | 17.9 | 71 | 54,300 | 0.08 | 0 | 1.5 | 6.97 | 53.44 | 0 | 0 | 1.07 | 2.56 |
| 01:53 | 2 | 18 | 71 | 54,270 | 0.06 | 0 | 1.45 | 6.25 | 52.56 | 0 | 0 | 1.07 | 2.56 |
| 01:52 | 2 | 18 | 71 | 54,255 | 0.08 | 0 | 1.4 | 6.46 | 53.32 | 0 | 0 | 1.55 | 3.18 |
| 01:51 | 2 | 17.9 | 71 | 54,260 | 0.06 | 0 | 1.4 | 8.11 | 46.94 | 0 | 0 | 1.07 | 2.56 |
| 01:50 | 2 | 17.9 | 71 | 54,267 | 0.07 | 0 | 1.36 | 6.08 | 53.17 | 0 | 0 | 1.07 | 2.56 |